Sadan Bayraktar — TCRB — position and weather

sailwx.info

Track history (hours):
 
Tides and Currents Weather Stations Pressure Air Temp Water Temp Dewpoint Dewpoint Depression Visibility Wind Speed Wind Dir Waves Ship Positions

Sadan Bayraktar

Last reported at 2017-Mar-27 15:15 UTC. Time now 2017-Mar-28 15:54 UTC.
Position N 39°54' E 003°58'.

Length 116 m; draft 5.6 m.

Type: Ship. MMSI: 271000653.

Date/timePositionNaut miles runAvg speedWind from/ knotsBaromVisibWave heightAir tempDewpointWater temp
2017-Mar-27 15:15N 39°54' E 003°58'0 0.0
2017-Mar-27 13:10N 39°54' E 003°58'0 0.0
2017-Mar-27 12:28N 39°54' E 003°58'0 0.0
2017-Mar-27 11:10N 39°54' E 003°58'0 0.0
2017-Mar-27 10:16N 39°54' E 003°58'0 0.0
2017-Mar-27 07:28N 39°54' E 003°58'0 0.0
2017-Mar-27 06:04N 39°54' E 003°58'0 0.0
2017-Mar-27 05:22N 39°54' E 003°58'0 0.0
2017-Mar-27 04:04N 39°54' E 003°58'0 0.0
2017-Mar-27 01:16N 39°54' E 003°58'0 0.0
2017-Mar-27 00:28N 39°54' E 003°58'0 0.0
2017-Mar-26 23:22N 39°54' E 003°58'0 0.0
2017-Mar-25 23:08N 39°54' E 003°59'0 0.0
2017-Mar-25 22:26N 39°54' E 003°59'0 0.0
2017-Mar-25 20:23N 39°54' E 003°59'0 0.0
2017-Mar-25 19:29N 39°54' E 003°59'0 0.0
2017-Mar-25 16:30N 39°54' E 003°59'0 0.0
2017-Mar-25 15:24N 39°54' E 003°59'0 0.0
2017-Mar-25 13:06N 39°54' E 003°59'90 6.2
2017-Mar-24 22:33N 40°56' E 002°34'1713.0
2017-Mar-24 21:16N 41°11' E 002°23'22 0.8
2017-Mar-23 19:06N 41°11' E 002°52'1 0.8
2017-Mar-23 18:06N 41°10' E 002°52'2 0.7
2017-Mar-23 15:31N 41°08' E 002°52'0 0.5
2017-Mar-23 14:27N 41°08' E 002°51'3 0.7
2017-Mar-23 10:29N 41°09' E 002°47'1 1.0
2017-Mar-23 09:27N 41°09' E 002°46'1 0.7
2017-Mar-23 08:33N 41°09' E 002°46'1 0.6
2017-Mar-23 07:32N 41°09' E 002°45'1 0.9
2017-Mar-23 06:33N 41°09' E 002°43'1 1.4
2017-Mar-23 05:32N 41°08' E 002°42'2 1.6
2017-Mar-23 04:33N 41°07' E 002°41'2 1.8
2017-Mar-23 03:33N 41°05' E 002°40'2 1.6
2017-Mar-23 02:33N 41°04' E 002°38'1 1.4
2017-Mar-23 01:33N 41°03' E 002°37'1 1.3
2017-Mar-23 00:33N 41°03' E 002°36'3 2.6
2017-Mar-22 23:33N 41°05' E 002°34'1110.5
2017-Mar-22 22:33N 41°15' E 002°32'2 1.7
2017-Mar-22 21:33N 41°14' E 002°34'1 1.4
2017-Mar-22 20:33N 41°13' E 002°35'1 1.4
2017-Mar-22 19:33N 41°12' E 002°36'1 1.4
2017-Mar-22 18:32N 41°11' E 002°37'1 1.2
2017-Mar-22 17:32N 41°10' E 002°38'1 1.2
2017-Mar-22 16:18N 41°08' E 002°39'1 1.3
2017-Mar-22 15:33N 41°07' E 002°38'1 1.2
2017-Mar-22 14:33N 41°06' E 002°38'1 1.1
2017-Mar-22 13:31N 41°05' E 002°38'1 0.8
2017-Mar-22 12:33N 41°04' E 002°37'0 0.2
2017-Mar-22 11:33N 41°04' E 002°37'0 0.3
2017-Mar-22 10:33N 41°05' E 002°37'1 0.6
2017-Mar-22 09:33N 41°05' E 002°37'1 0.8
2017-Mar-22 08:33N 41°06' E 002°36'1 0.6
2017-Mar-22 07:33N 41°06' E 002°36'1 0.6
2017-Mar-22 06:33N 41°07' E 002°35'0 0.5
2017-Mar-22 05:31N 41°07' E 002°34'1 0.4
2017-Mar-22 03:31N 41°06' E 002°34'22 1.2
2017-Mar-21 09:33N 41°18' E 002°09'0 0.0
2017-Mar-21 02:33N 41°18' E 002°09'3 0.4
2017-Mar-20 20:32N 41°19' E 002°12'0 0.0
2017-Mar-20 19:26N 41°19' E 002°12'0 0.0
2017-Mar-20 18:33N 41°19' E 002°12'8 7.5
2017-Mar-20 17:33N 41°11' E 002°11'1211.7
2017-Mar-20 16:33N 40°60' E 002°12'1211.8
2017-Mar-20 15:33N 40°48' E 002°12'1212.0
2017-Mar-20 14:33N 40°36' E 002°12'1211.8
2017-Mar-20 13:33N 40°24' E 002°13'1211.6
2017-Mar-20 12:33N 40°13' E 002°13'1211.7
2017-Mar-20 11:33N 40°01' E 002°14'1211.7
2017-Mar-20 10:33N 39°49' E 002°14'1211.8
2017-Mar-20 09:33N 39°37' E 002°14'1211.8
2017-Mar-20 08:33N 39°26' E 002°17'1211.9
2017-Mar-20 07:34N 39°14' E 002°21'1211.6
2017-Mar-20 06:33N 39°03' E 002°24'1211.6
2017-Mar-20 05:33N 38°52' E 002°28'1211.7
2017-Mar-20 04:33N 38°40' E 002°32'1212.3
2017-Mar-20 03:33N 38°29' E 002°35'1212.5
2017-Mar-20 02:33N 38°16' E 002°39'1312.8
2017-Mar-20 01:33N 38°04' E 002°43'1312.8
2017-Mar-20 00:33N 37°52' E 002°47'1212.0
2017-Mar-19 23:33N 37°40' E 002°51'1211.6
2017-Mar-19 22:33N 37°29' E 002°55'1111.5
2017-Mar-19 21:33N 37°18' E 002°58'1211.6
2017-Mar-19 20:33N 37°06' E 003°02'1211.8
2017-Mar-19 19:33N 36°55' E 003°06'  
Track history (hours):
 
Tides and Currents Weather Stations Pressure Air Temp Water Temp Dewpoint Dewpoint Depression Visibility Wind Speed Wind Dir Waves Ship Positions

Sadan Bayraktar

Last reported at 2017-Mar-27 15:15 UTC. Time now 2017-Mar-28 15:54 UTC.
Position N 39°54' E 003°58'.

Length 116 m; draft 5.6 m.

Type: Ship. MMSI: 271000653.

Date/timePositionNaut miles runAvg speedWind from/ knotsBaromVisibWave heightAir tempDewpointWater temp
2017-Mar-27 15:15N 39°54' E 003°58'0 0.0
2017-Mar-27 13:10N 39°54' E 003°58'0 0.0
2017-Mar-27 12:28N 39°54' E 003°58'0 0.0
2017-Mar-27 11:10N 39°54' E 003°58'0 0.0
2017-Mar-27 10:16N 39°54' E 003°58'0 0.0
2017-Mar-27 07:28N 39°54' E 003°58'0 0.0
2017-Mar-27 06:04N 39°54' E 003°58'0 0.0
2017-Mar-27 05:22N 39°54' E 003°58'0 0.0
2017-Mar-27 04:04N 39°54' E 003°58'0 0.0
2017-Mar-27 01:16N 39°54' E 003°58'0 0.0
2017-Mar-27 00:28N 39°54' E 003°58'0 0.0
2017-Mar-26 23:22N 39°54' E 003°58'0 0.0
2017-Mar-25 23:08N 39°54' E 003°59'0 0.0
2017-Mar-25 22:26N 39°54' E 003°59'0 0.0
2017-Mar-25 20:23N 39°54' E 003°59'0 0.0
2017-Mar-25 19:29N 39°54' E 003°59'0 0.0
2017-Mar-25 16:30N 39°54' E 003°59'0 0.0
2017-Mar-25 15:24N 39°54' E 003°59'0 0.0
2017-Mar-25 13:06N 39°54' E 003°59'90 6.2
2017-Mar-24 22:33N 40°56' E 002°34'1713.0
2017-Mar-24 21:16N 41°11' E 002°23'22 0.8
2017-Mar-23 19:06N 41°11' E 002°52'1 0.8
2017-Mar-23 18:06N 41°10' E 002°52'2 0.7
2017-Mar-23 15:31N 41°08' E 002°52'0 0.5
2017-Mar-23 14:27N 41°08' E 002°51'3 0.7
2017-Mar-23 10:29N 41°09' E 002°47'1 1.0
2017-Mar-23 09:27N 41°09' E 002°46'1 0.7
2017-Mar-23 08:33N 41°09' E 002°46'1 0.6
2017-Mar-23 07:32N 41°09' E 002°45'1 0.9
2017-Mar-23 06:33N 41°09' E 002°43'1 1.4
2017-Mar-23 05:32N 41°08' E 002°42'2 1.6
2017-Mar-23 04:33N 41°07' E 002°41'2 1.8
2017-Mar-23 03:33N 41°05' E 002°40'2 1.6
2017-Mar-23 02:33N 41°04' E 002°38'1 1.4
2017-Mar-23 01:33N 41°03' E 002°37'1 1.3
2017-Mar-23 00:33N 41°03' E 002°36'3 2.6
2017-Mar-22 23:33N 41°05' E 002°34'1110.5
2017-Mar-22 22:33N 41°15' E 002°32'2 1.7
2017-Mar-22 21:33N 41°14' E 002°34'1 1.4
2017-Mar-22 20:33N 41°13' E 002°35'1 1.4
2017-Mar-22 19:33N 41°12' E 002°36'1 1.4
2017-Mar-22 18:32N 41°11' E 002°37'1 1.2
2017-Mar-22 17:32N 41°10' E 002°38'1 1.2
2017-Mar-22 16:18N 41°08' E 002°39'1 1.3
2017-Mar-22 15:33N 41°07' E 002°38'1 1.2
2017-Mar-22 14:33N 41°06' E 002°38'1 1.1
2017-Mar-22 13:31N 41°05' E 002°38'1 0.8
2017-Mar-22 12:33N 41°04' E 002°37'0 0.2
2017-Mar-22 11:33N 41°04' E 002°37'0 0.3
2017-Mar-22 10:33N 41°05' E 002°37'1 0.6
2017-Mar-22 09:33N 41°05' E 002°37'1 0.8
2017-Mar-22 08:33N 41°06' E 002°36'1 0.6
2017-Mar-22 07:33N 41°06' E 002°36'1 0.6
2017-Mar-22 06:33N 41°07' E 002°35'0 0.5
2017-Mar-22 05:31N 41°07' E 002°34'1 0.4
2017-Mar-22 03:31N 41°06' E 002°34'22 1.2
2017-Mar-21 09:33N 41°18' E 002°09'0 0.0
2017-Mar-21 02:33N 41°18' E 002°09'3 0.4
2017-Mar-20 20:32N 41°19' E 002°12'0 0.0
2017-Mar-20 19:26N 41°19' E 002°12'0 0.0
2017-Mar-20 18:33N 41°19' E 002°12'8 7.5
2017-Mar-20 17:33N 41°11' E 002°11'1211.7
2017-Mar-20 16:33N 40°60' E 002°12'1211.8
2017-Mar-20 15:33N 40°48' E 002°12'1212.0
2017-Mar-20 14:33N 40°36' E 002°12'1211.8
2017-Mar-20 13:33N 40°24' E 002°13'1211.6
2017-Mar-20 12:33N 40°13' E 002°13'1211.7
2017-Mar-20 11:33N 40°01' E 002°14'1211.7
2017-Mar-20 10:33N 39°49' E 002°14'1211.8
2017-Mar-20 09:33N 39°37' E 002°14'1211.8
2017-Mar-20 08:33N 39°26' E 002°17'1211.9
2017-Mar-20 07:34N 39°14' E 002°21'1211.6
2017-Mar-20 06:33N 39°03' E 002°24'1211.6
2017-Mar-20 05:33N 38°52' E 002°28'1211.7
2017-Mar-20 04:33N 38°40' E 002°32'1212.3
2017-Mar-20 03:33N 38°29' E 002°35'1212.5
2017-Mar-20 02:33N 38°16' E 002°39'1312.8
2017-Mar-20 01:33N 38°04' E 002°43'1312.8
2017-Mar-20 00:33N 37°52' E 002°47'1212.0
2017-Mar-19 23:33N 37°40' E 002°51'1211.6
2017-Mar-19 22:33N 37°29' E 002°55'1111.5
2017-Mar-19 21:33N 37°18' E 002°58'1211.6
2017-Mar-19 20:33N 37°06' E 003°02'1211.8
2017-Mar-19 19:33N 36°55' E 003°06'  

Dump ship's entire track history